sensor_id;sensor_type;location;lat;lon;timestamp;pressure;altitude;pressure_sealevel;temperature;humidity
38253;BME280;24785;52.372;20.672;2022-12-07T00:05:12;99936.72;;;0.20;100.00
38253;BME280;24785;52.372;20.672;2022-12-07T00:15:13;99935.47;;;0.22;100.00
38253;BME280;24785;52.372;20.672;2022-12-07T00:25:14;99933.66;;;0.41;100.00
38253;BME280;24785;52.372;20.672;2022-12-07T00:35:15;99941.19;;;0.38;100.00
38253;BME280;24785;52.372;20.672;2022-12-07T00:45:16;99932.19;;;0.27;100.00
38253;BME280;24785;52.372;20.672;2022-12-07T00:55:17;99923.25;;;0.28;100.00
38253;BME280;24785;52.372;20.672;2022-12-07T01:05:18;99929.69;;;0.32;100.00
38253;BME280;24785;52.372;20.672;2022-12-07T01:15:19;99902.31;;;0.33;100.00
38253;BME280;24785;52.372;20.672;2022-12-07T01:25:20;99914.13;;;0.49;100.00
38253;BME280;24785;52.372;20.672;2022-12-07T01:35:21;99900.63;;;0.57;100.00
38253;BME280;24785;52.372;20.672;2022-12-07T01:45:37;99899.50;;;1.01;100.00
38253;BME280;24785;52.372;20.672;2022-12-07T01:55:42;99891.84;;;0.93;100.00
38253;BME280;24785;52.372;20.672;2022-12-07T02:05:46;99884.72;;;1.12;100.00
38253;BME280;24785;52.372;20.672;2022-12-07T02:26:23;99880.38;;;1.17;100.00
38253;BME280;24785;52.372;20.672;2022-12-07T02:36:30;99872.03;;;1.32;100.00
38253;BME280;24785;52.372;20.672;2022-12-07T02:46:36;99867.66;;;1.26;100.00
38253;BME280;24785;52.372;20.672;2022-12-07T03:06:56;99869.06;;;1.40;100.00
38253;BME280;24785;52.372;20.672;2022-12-07T03:17:11;99873.63;;;1.33;100.00
38253;BME280;24785;52.372;20.672;2022-12-07T03:27:14;99868.25;;;1.40;100.00
38253;BME280;24785;52.372;20.672;2022-12-07T03:37:36;99853.22;;;1.40;100.00
38253;BME280;24785;52.372;20.672;2022-12-07T03:58:20;99835.06;;;1.32;100.00
38253;BME280;24785;52.372;20.672;2022-12-07T04:08:22;99843.91;;;1.38;100.00
38253;BME280;24785;52.372;20.672;2022-12-07T04:18:23;99829.78;;;1.32;100.00
38253;BME280;24785;52.372;20.672;2022-12-07T04:28:24;99840.22;;;1.27;100.00
38253;BME280;24785;52.372;20.672;2022-12-07T04:38:25;99834.59;;;1.12;100.00
38253;BME280;24785;52.372;20.672;2022-12-07T04:48:26;99831.63;;;1.20;100.00
38253;BME280;24785;52.372;20.672;2022-12-07T04:58:27;99826.44;;;1.13;100.00
38253;BME280;24785;52.372;20.672;2022-12-07T05:08:28;99827.81;;;1.04;100.00
38253;BME280;24785;52.372;20.672;2022-12-07T05:18:29;99808.41;;;0.99;100.00
38253;BME280;24785;52.372;20.672;2022-12-07T05:28:29;99813.72;;;0.80;100.00
38253;BME280;24785;52.372;20.672;2022-12-07T05:38:33;99798.66;;;0.69;100.00
38253;BME280;24785;52.372;20.672;2022-12-07T05:48:34;99821.25;;;0.47;100.00
38253;BME280;24785;52.372;20.672;2022-12-07T05:58:37;99818.13;;;0.38;100.00
38253;BME280;24785;52.372;20.672;2022-12-07T06:08:56;99813.72;;;0.32;100.00
38253;BME280;24785;52.372;20.672;2022-12-07T06:18:57;99803.84;;;0.27;100.00
38253;BME280;24785;52.372;20.672;2022-12-07T06:28:58;99795.59;;;0.24;100.00
38253;BME280;24785;52.372;20.672;2022-12-07T06:38:59;99795.22;;;0.20;100.00
38253;BME280;24785;52.372;20.672;2022-12-07T06:49:00;99804.00;;;0.32;100.00
38253;BME280;24785;52.372;20.672;2022-12-07T06:59:02;99795.91;;;0.46;100.00
38253;BME280;24785;52.372;20.672;2022-12-07T07:09:03;99800.16;;;0.47;100.00
38253;BME280;24785;52.372;20.672;2022-12-07T07:19:04;99806.47;;;0.46;100.00
38253;BME280;24785;52.372;20.672;2022-12-07T07:29:05;99815.69;;;0.55;100.00
38253;BME280;24785;52.372;20.672;2022-12-07T07:39:06;99811.44;;;0.54;100.00
38253;BME280;24785;52.372;20.672;2022-12-07T07:49:09;99803.22;;;0.62;100.00
38253;BME280;24785;52.372;20.672;2022-12-07T07:59:11;99807.88;;;0.78;100.00
38253;BME280;24785;52.372;20.672;2022-12-07T08:09:12;99812.59;;;0.88;100.00
38253;BME280;24785;52.372;20.672;2022-12-07T08:19:12;99810.25;;;0.98;100.00
38253;BME280;24785;52.372;20.672;2022-12-07T08:29:13;99818.41;;;1.20;100.00
38253;BME280;24785;52.372;20.672;2022-12-07T08:39:14;99825.25;;;1.51;100.00
38253;BME280;24785;52.372;20.672;2022-12-07T08:49:22;99819.84;;;1.69;100.00
38253;BME280;24785;52.372;20.672;2022-12-07T08:59:24;99819.97;;;1.74;100.00
38253;BME280;24785;52.372;20.672;2022-12-07T09:09:26;99818.69;;;1.88;100.00
38253;BME280;24785;52.372;20.672;2022-12-07T09:19:27;99819.50;;;1.89;100.00
38253;BME280;24785;52.372;20.672;2022-12-07T09:29:28;99811.00;;;1.99;100.00
38253;BME280;24785;52.372;20.672;2022-12-07T09:39:29;99798.25;;;1.96;100.00
38253;BME280;24785;52.372;20.672;2022-12-07T09:49:31;99804.44;;;2.01;100.00
38253;BME280;24785;52.372;20.672;2022-12-07T09:59:32;99812.38;;;2.01;100.00
38253;BME280;24785;52.372;20.672;2022-12-07T10:09:34;99811.69;;;2.06;100.00
38253;BME280;24785;52.372;20.672;2022-12-07T10:19:36;99813.06;;;2.08;100.00
38253;BME280;24785;52.372;20.672;2022-12-07T10:29:38;99813.84;;;2.09;100.00
38253;BME280;24785;52.372;20.672;2022-12-07T11:10:19;99802.88;;;2.40;100.00
38253;BME280;24785;52.372;20.672;2022-12-07T11:20:48;99802.25;;;2.50;100.00
38253;BME280;24785;52.372;20.672;2022-12-07T11:41:04;99775.69;;;2.73;100.00
38253;BME280;24785;52.372;20.672;2022-12-07T11:51:18;99770.88;;;3.15;100.00
38253;BME280;24785;52.372;20.672;2022-12-07T12:21:54;99751.06;;;2.56;100.00
38253;BME280;24785;52.372;20.672;2022-12-07T12:32:18;99739.53;;;2.79;100.00
38253;BME280;24785;52.372;20.672;2022-12-07T12:42:21;99738.19;;;2.76;100.00
38253;BME280;24785;52.372;20.672;2022-12-07T13:02:52;99721.66;;;2.52;100.00
38253;BME280;24785;52.372;20.672;2022-12-07T13:33:37;99714.47;;;2.08;100.00
38253;BME280;24785;52.372;20.672;2022-12-07T13:43:45;99710.91;;;2.02;100.00
38253;BME280;24785;52.372;20.672;2022-12-07T13:53:51;99709.66;;;2.05;100.00
38253;BME280;24785;52.372;20.672;2022-12-07T14:03:53;99723.50;;;1.72;100.00
38253;BME280;24785;52.372;20.672;2022-12-07T14:14:01;99714.47;;;1.44;100.00
38253;BME280;24785;52.372;20.672;2022-12-07T14:24:16;99733.63;;;1.51;100.00
38253;BME280;24785;52.372;20.672;2022-12-07T14:34:21;99727.88;;;1.31;100.00
38253;BME280;24785;52.372;20.672;2022-12-07T14:44:23;99732.69;;;0.99;100.00
38253;BME280;24785;52.372;20.672;2022-12-07T14:54:27;99730.44;;;0.73;100.00
38253;BME280;24785;52.372;20.672;2022-12-07T15:04:32;99715.19;;;0.63;100.00
38253;BME280;24785;52.372;20.672;2022-12-07T15:14:33;99705.09;;;0.72;100.00
38253;BME280;24785;52.372;20.672;2022-12-07T15:24:34;99693.19;;;0.69;100.00
38253;BME280;24785;52.372;20.672;2022-12-07T15:34:35;99683.34;;;0.76;100.00
38253;BME280;24785;52.372;20.672;2022-12-07T15:44:36;99677.03;;;0.89;100.00
38253;BME280;24785;52.372;20.672;2022-12-07T15:54:55;99669.59;;;0.98;100.00
38253;BME280;24785;52.372;20.672;2022-12-07T16:04:57;99673.16;;;1.03;100.00
38253;BME280;24785;52.372;20.672;2022-12-07T16:14:57;99667.53;;;1.11;100.00
38253;BME280;24785;52.372;20.672;2022-12-07T16:24:58;99651.47;;;1.13;100.00
38253;BME280;24785;52.372;20.672;2022-12-07T16:34:59;99665.94;;;1.10;100.00
38253;BME280;24785;52.372;20.672;2022-12-07T16:45:02;99659.81;;;1.33;100.00
38253;BME280;24785;52.372;20.672;2022-12-07T16:55:04;99667.06;;;1.49;100.00
38253;BME280;24785;52.372;20.672;2022-12-07T17:05:06;99659.47;;;1.53;100.00
38253;BME280;24785;52.372;20.672;2022-12-07T17:15:08;99658.78;;;1.57;100.00
38253;BME280;24785;52.372;20.672;2022-12-07T17:25:18;99666.00;;;1.62;100.00
38253;BME280;24785;52.372;20.672;2022-12-07T17:35:19;99670.63;;;1.32;100.00
38253;BME280;24785;52.372;20.672;2022-12-07T17:45:20;99662.16;;;1.18;100.00
38253;BME280;24785;52.372;20.672;2022-12-07T17:55:21;99674.41;;;1.24;100.00
38253;BME280;24785;52.372;20.672;2022-12-07T18:05:22;99685.31;;;1.16;100.00
38253;BME280;24785;52.372;20.672;2022-12-07T18:15:23;99674.66;;;1.11;100.00
38253;BME280;24785;52.372;20.672;2022-12-07T18:25:24;99688.31;;;1.08;100.00
38253;BME280;24785;52.372;20.672;2022-12-07T18:35:24;99703.78;;;1.04;100.00
38253;BME280;24785;52.372;20.672;2022-12-07T18:45:25;99710.09;;;1.03;100.00
38253;BME280;24785;52.372;20.672;2022-12-07T18:55:27;99706.72;;;0.84;100.00
38253;BME280;24785;52.372;20.672;2022-12-07T19:05:28;99702.38;;;0.78;100.00
38253;BME280;24785;52.372;20.672;2022-12-07T19:15:30;99727.72;;;0.91;100.00
38253;BME280;24785;52.372;20.672;2022-12-07T19:25:30;99731.28;;;0.85;100.00
38253;BME280;24785;52.372;20.672;2022-12-07T19:35:31;99752.72;;;0.88;100.00
38253;BME280;24785;52.372;20.672;2022-12-07T19:45:33;99752.94;;;0.87;100.00
38253;BME280;24785;52.372;20.672;2022-12-07T19:55:38;99770.63;;;0.86;100.00
38253;BME280;24785;52.372;20.672;2022-12-07T20:05:39;99783.28;;;0.66;100.00
38253;BME280;24785;52.372;20.672;2022-12-07T20:15:40;99799.53;;;0.51;100.00
38253;BME280;24785;52.372;20.672;2022-12-07T20:25:41;99795.91;;;0.46;100.00
38253;BME280;24785;52.372;20.672;2022-12-07T20:35:42;99812.34;;;0.29;100.00
38253;BME280;24785;52.372;20.672;2022-12-07T20:45:47;99831.97;;;0.34;100.00
38253;BME280;24785;52.372;20.672;2022-12-07T20:55:48;99826.13;;;0.13;100.00
38253;BME280;24785;52.372;20.672;2022-12-07T21:05:49;99836.84;;;-0.07;100.00
38253;BME280;24785;52.372;20.672;2022-12-07T21:15:50;99839.03;;;-0.22;100.00
38253;BME280;24785;52.372;20.672;2022-12-07T21:25:51;99851.72;;;-0.37;100.00
38253;BME280;24785;52.372;20.672;2022-12-07T21:35:52;99854.44;;;-0.50;100.00
38253;BME280;24785;52.372;20.672;2022-12-07T21:45:53;99856.81;;;-0.67;100.00
38253;BME280;24785;52.372;20.672;2022-12-07T21:55:54;99852.47;;;-0.55;100.00
38253;BME280;24785;52.372;20.672;2022-12-07T22:05:59;99853.06;;;-0.53;100.00
38253;BME280;24785;52.372;20.672;2022-12-07T22:16:01;99857.56;;;-0.60;100.00
38253;BME280;24785;52.372;20.672;2022-12-07T22:26:07;99854.19;;;-0.67;100.00
38253;BME280;24785;52.372;20.672;2022-12-07T22:36:09;99844.19;;;-0.83;100.00
38253;BME280;24785;52.372;20.672;2022-12-07T22:46:09;99855.19;;;-1.00;100.00
38253;BME280;24785;52.372;20.672;2022-12-07T22:56:10;99857.03;;;-1.00;100.00
38253;BME280;24785;52.372;20.672;2022-12-07T23:06:18;99864.03;;;-0.87;100.00
38253;BME280;24785;52.372;20.672;2022-12-07T23:16:19;99851.13;;;-0.96;100.00
38253;BME280;24785;52.372;20.672;2022-12-07T23:26:20;99862.47;;;-0.39;100.00
38253;BME280;24785;52.372;20.672;2022-12-07T23:36:23;99867.50;;;-0.12;100.00
38253;BME280;24785;52.372;20.672;2022-12-07T23:46:27;99874.47;;;0.01;100.00
38253;BME280;24785;52.372;20.672;2022-12-07T23:56:30;99878.84;;;-0.12;100.00
